sensor_id;sensor_type;location;lat;lon;timestamp;P1;durP1;ratioP1;P2;durP2;ratioP2
54849;SDS011;47660;51.334;12.396;2022-10-24T00:00:14;2.97;;;1.40;;
54849;SDS011;47660;51.334;12.396;2022-10-24T00:02:41;2.83;;;1.40;;
54849;SDS011;47660;51.334;12.396;2022-10-24T00:05:06;3.90;;;1.60;;
54849;SDS011;47660;51.334;12.396;2022-10-24T00:07:34;2.35;;;1.27;;
54849;SDS011;47660;51.334;12.396;2022-10-24T00:09:59;5.47;;;1.70;;
54849;SDS011;47660;51.334;12.396;2022-10-24T00:12:27;3.80;;;1.30;;
54849;SDS011;47660;51.334;12.396;2022-10-24T00:14:57;2.00;;;1.40;;
54849;SDS011;47660;51.334;12.396;2022-10-24T00:17:22;2.05;;;1.42;;
54849;SDS011;47660;51.334;12.396;2022-10-24T00:19:47;4.45;;;1.42;;
54849;SDS011;47660;51.334;12.396;2022-10-24T00:22:12;2.90;;;1.45;;
54849;SDS011;47660;51.334;12.396;2022-10-24T00:24:37;2.25;;;1.58;;
54849;SDS011;47660;51.334;12.396;2022-10-24T00:27:03;2.50;;;1.40;;
54849;SDS011;47660;51.334;12.396;2022-10-24T00:29:28;2.25;;;1.50;;
54849;SDS011;47660;51.334;12.396;2022-10-24T00:31:53;2.33;;;1.40;;
54849;SDS011;47660;51.334;12.396;2022-10-24T00:34:19;2.13;;;1.50;;
54849;SDS011;47660;51.334;12.396;2022-10-24T00:36:46;2.65;;;1.58;;
54849;SDS011;47660;51.334;12.396;2022-10-24T00:39:12;2.95;;;1.52;;
54849;SDS011;47660;51.334;12.396;2022-10-24T00:41:41;2.65;;;1.58;;
54849;SDS011;47660;51.334;12.396;2022-10-24T00:44:23;2.47;;;1.50;;
54849;SDS011;47660;51.334;12.396;2022-10-24T00:46:51;5.00;;;1.65;;
54849;SDS011;47660;51.334;12.396;2022-10-24T00:49:22;3.78;;;1.45;;
54849;SDS011;47660;51.334;12.396;2022-10-24T00:51:49;4.97;;;1.65;;
54849;SDS011;47660;51.334;12.396;2022-10-24T00:54:16;2.00;;;1.42;;
54849;SDS011;47660;51.334;12.396;2022-10-24T00:56:44;2.15;;;1.30;;
54849;SDS011;47660;51.334;12.396;2022-10-24T00:59:13;3.15;;;1.40;;
54849;SDS011;47660;51.334;12.396;2022-10-24T01:01:42;3.65;;;1.55;;
54849;SDS011;47660;51.334;12.396;2022-10-24T01:04:09;2.60;;;1.77;;
54849;SDS011;47660;51.334;12.396;2022-10-24T01:06:43;1.85;;;1.63;;
54849;SDS011;47660;51.334;12.396;2022-10-24T01:09:31;2.45;;;1.50;;
54849;SDS011;47660;51.334;12.396;2022-10-24T01:14:26;2.07;;;1.60;;
54849;SDS011;47660;51.334;12.396;2022-10-24T01:19:43;3.08;;;1.40;;
54849;SDS011;47660;51.334;12.396;2022-10-24T01:22:18;4.22;;;1.55;;
54849;SDS011;47660;51.334;12.396;2022-10-24T01:25:05;2.17;;;1.38;;
54849;SDS011;47660;51.334;12.396;2022-10-24T01:30:07;3.25;;;1.95;;
54849;SDS011;47660;51.334;12.396;2022-10-24T01:35:25;2.85;;;1.20;;
54849;SDS011;47660;51.334;12.396;2022-10-24T01:40:19;2.00;;;1.40;;
54849;SDS011;47660;51.334;12.396;2022-10-24T01:42:44;5.15;;;1.58;;
54849;SDS011;47660;51.334;12.396;2022-10-24T01:45:12;2.17;;;1.60;;
54849;SDS011;47660;51.334;12.396;2022-10-24T01:47:39;2.85;;;1.40;;
54849;SDS011;47660;51.334;12.396;2022-10-24T01:50:06;1.50;;;1.13;;
54849;SDS011;47660;51.334;12.396;2022-10-24T01:52:33;3.60;;;1.60;;
54849;SDS011;47660;51.334;12.396;2022-10-24T01:55:00;2.95;;;1.42;;
54849;SDS011;47660;51.334;12.396;2022-10-24T01:57:29;3.45;;;1.65;;
54849;SDS011;47660;51.334;12.396;2022-10-24T01:59:54;5.35;;;1.95;;
54849;SDS011;47660;51.334;12.396;2022-10-24T02:02:21;3.05;;;1.40;;
54849;SDS011;47660;51.334;12.396;2022-10-24T02:04:58;7.40;;;1.95;;
54849;SDS011;47660;51.334;12.396;2022-10-24T02:07:26;5.10;;;1.65;;
54849;SDS011;47660;51.334;12.396;2022-10-24T02:09:53;2.80;;;1.40;;
54849;SDS011;47660;51.334;12.396;2022-10-24T02:12:22;2.85;;;1.48;;
54849;SDS011;47660;51.334;12.396;2022-10-24T02:14:51;3.15;;;1.48;;
54849;SDS011;47660;51.334;12.396;2022-10-24T02:17:17;2.47;;;1.60;;
54849;SDS011;47660;51.334;12.396;2022-10-24T02:19:42;2.90;;;1.30;;
54849;SDS011;47660;51.334;12.396;2022-10-24T02:24:38;2.97;;;1.63;;
54849;SDS011;47660;51.334;12.396;2022-10-24T02:27:07;1.83;;;1.58;;
54849;SDS011;47660;51.334;12.396;2022-10-24T02:32:12;2.20;;;1.40;;
54849;SDS011;47660;51.334;12.396;2022-10-24T02:34:39;2.08;;;1.27;;
54849;SDS011;47660;51.334;12.396;2022-10-24T02:37:06;6.88;;;1.83;;
54849;SDS011;47660;51.334;12.396;2022-10-24T02:39:32;4.78;;;1.50;;
54849;SDS011;47660;51.334;12.396;2022-10-24T02:41:58;4.70;;;1.48;;
54849;SDS011;47660;51.334;12.396;2022-10-24T02:44:24;4.78;;;1.48;;
54849;SDS011;47660;51.334;12.396;2022-10-24T02:46:51;3.70;;;1.50;;
54849;SDS011;47660;51.334;12.396;2022-10-24T02:49:18;4.55;;;1.20;;
54849;SDS011;47660;51.334;12.396;2022-10-24T02:51:43;2.45;;;1.50;;
54849;SDS011;47660;51.334;12.396;2022-10-24T02:54:10;7.65;;;1.50;;
54849;SDS011;47660;51.334;12.396;2022-10-24T02:56:36;4.65;;;1.65;;
54849;SDS011;47660;51.334;12.396;2022-10-24T02:59:03;1.55;;;0.98;;
54849;SDS011;47660;51.334;12.396;2022-10-24T03:01:30;1.63;;;1.17;;
54849;SDS011;47660;51.334;12.396;2022-10-24T03:03:56;2.90;;;1.08;;
54849;SDS011;47660;51.334;12.396;2022-10-24T03:06:21;3.43;;;1.37;;
54849;SDS011;47660;51.334;12.396;2022-10-24T03:08:46;4.20;;;1.23;;
54849;SDS011;47660;51.334;12.396;2022-10-24T03:11:11;1.65;;;0.82;;
54849;SDS011;47660;51.334;12.396;2022-10-24T03:13:36;1.60;;;1.27;;
54849;SDS011;47660;51.334;12.396;2022-10-24T03:16:02;5.35;;;1.50;;
54849;SDS011;47660;51.334;12.396;2022-10-24T03:18:28;2.03;;;1.10;;
54849;SDS011;47660;51.334;12.396;2022-10-24T03:20:54;1.65;;;1.15;;
54849;SDS011;47660;51.334;12.396;2022-10-24T03:23:19;3.50;;;1.50;;
54849;SDS011;47660;51.334;12.396;2022-10-24T03:25:45;4.40;;;1.27;;
54849;SDS011;47660;51.334;12.396;2022-10-24T03:28:11;5.83;;;1.30;;
54849;SDS011;47660;51.334;12.396;2022-10-24T03:30:38;3.17;;;1.20;;
54849;SDS011;47660;51.334;12.396;2022-10-24T03:33:03;3.50;;;1.30;;
54849;SDS011;47660;51.334;12.396;2022-10-24T03:35:28;3.93;;;1.30;;
54849;SDS011;47660;51.334;12.396;2022-10-24T03:37:59;2.70;;;1.10;;
54849;SDS011;47660;51.334;12.396;2022-10-24T03:40:24;2.95;;;1.25;;
54849;SDS011;47660;51.334;12.396;2022-10-24T03:42:49;3.35;;;1.40;;
54849;SDS011;47660;51.334;12.396;2022-10-24T03:45:15;2.13;;;0.95;;
54849;SDS011;47660;51.334;12.396;2022-10-24T03:47:40;4.68;;;1.48;;
54849;SDS011;47660;51.334;12.396;2022-10-24T03:50:05;4.53;;;1.30;;
54849;SDS011;47660;51.334;12.396;2022-10-24T03:52:31;5.50;;;1.35;;
54849;SDS011;47660;51.334;12.396;2022-10-24T03:54:56;2.95;;;0.98;;
54849;SDS011;47660;51.334;12.396;2022-10-24T03:57:21;4.65;;;1.73;;
54849;SDS011;47660;51.334;12.396;2022-10-24T03:59:46;3.55;;;1.38;;
54849;SDS011;47660;51.334;12.396;2022-10-24T04:02:12;3.22;;;1.20;;
54849;SDS011;47660;51.334;12.396;2022-10-24T04:04:38;6.90;;;2.03;;
54849;SDS011;47660;51.334;12.396;2022-10-24T04:07:03;2.58;;;1.10;;
54849;SDS011;47660;51.334;12.396;2022-10-24T04:09:31;3.97;;;1.08;;
54849;SDS011;47660;51.334;12.396;2022-10-24T04:11:56;4.70;;;1.50;;
54849;SDS011;47660;51.334;12.396;2022-10-24T04:14:22;2.80;;;1.13;;
54849;SDS011;47660;51.334;12.396;2022-10-24T04:16:47;3.63;;;1.10;;
54849;SDS011;47660;51.334;12.396;2022-10-24T04:19:12;3.53;;;0.95;;
54849;SDS011;47660;51.334;12.396;2022-10-24T04:21:43;6.38;;;1.20;;
54849;SDS011;47660;51.334;12.396;2022-10-24T04:24:09;3.60;;;1.25;;
54849;SDS011;47660;51.334;12.396;2022-10-24T04:26:34;3.92;;;1.58;;
54849;SDS011;47660;51.334;12.396;2022-10-24T04:28:59;2.72;;;1.02;;
54849;SDS011;47660;51.334;12.396;2022-10-24T04:31:24;3.03;;;1.50;;
54849;SDS011;47660;51.334;12.396;2022-10-24T04:33:50;2.80;;;0.90;;
54849;SDS011;47660;51.334;12.396;2022-10-24T04:36:15;4.90;;;0.83;;
54849;SDS011;47660;51.334;12.396;2022-10-24T04:38:40;2.72;;;1.13;;
54849;SDS011;47660;51.334;12.396;2022-10-24T04:41:08;2.25;;;0.95;;
54849;SDS011;47660;51.334;12.396;2022-10-24T04:43:33;4.20;;;0.95;;
54849;SDS011;47660;51.334;12.396;2022-10-24T04:45:58;1.10;;;0.90;;
54849;SDS011;47660;51.334;12.396;2022-10-24T04:48:23;2.15;;;0.93;;
54849;SDS011;47660;51.334;12.396;2022-10-24T04:50:49;2.03;;;1.20;;
54849;SDS011;47660;51.334;12.396;2022-10-24T04:53:14;6.13;;;1.10;;
54849;SDS011;47660;51.334;12.396;2022-10-24T04:55:39;1.23;;;0.70;;
54849;SDS011;47660;51.334;12.396;2022-10-24T04:58:04;1.65;;;0.98;;
54849;SDS011;47660;51.334;12.396;2022-10-24T05:00:30;5.38;;;1.17;;
54849;SDS011;47660;51.334;12.396;2022-10-24T05:02:55;8.27;;;1.40;;
54849;SDS011;47660;51.334;12.396;2022-10-24T05:05:20;2.47;;;0.70;;
54849;SDS011;47660;51.334;12.396;2022-10-24T05:07:46;3.45;;;1.10;;
54849;SDS011;47660;51.334;12.396;2022-10-24T05:10:11;2.40;;;0.77;;
54849;SDS011;47660;51.334;12.396;2022-10-24T05:12:40;7.00;;;1.48;;
54849;SDS011;47660;51.334;12.396;2022-10-24T05:15:05;3.35;;;1.00;;
54849;SDS011;47660;51.334;12.396;2022-10-24T05:17:30;2.25;;;1.17;;
54849;SDS011;47660;51.334;12.396;2022-10-24T05:19:56;2.05;;;0.90;;
54849;SDS011;47660;51.334;12.396;2022-10-24T05:22:21;2.60;;;1.20;;
54849;SDS011;47660;51.334;12.396;2022-10-24T05:24:47;5.85;;;1.25;;
54849;SDS011;47660;51.334;12.396;2022-10-24T05:27:13;1.63;;;0.93;;
54849;SDS011;47660;51.334;12.396;2022-10-24T05:29:38;2.87;;;1.03;;
54849;SDS011;47660;51.334;12.396;2022-10-24T05:32:08;1.55;;;0.90;;
54849;SDS011;47660;51.334;12.396;2022-10-24T05:34:33;2.38;;;1.33;;
54849;SDS011;47660;51.334;12.396;2022-10-24T05:36:58;8.45;;;0.98;;
54849;SDS011;47660;51.334;12.396;2022-10-24T05:39:23;1.90;;;1.00;;
54849;SDS011;47660;51.334;12.396;2022-10-24T05:41:49;2.35;;;0.80;;
54849;SDS011;47660;51.334;12.396;2022-10-24T05:44:14;3.90;;;1.25;;
54849;SDS011;47660;51.334;12.396;2022-10-24T05:46:39;2.20;;;1.10;;
54849;SDS011;47660;51.334;12.396;2022-10-24T05:49:05;4.22;;;1.10;;
54849;SDS011;47660;51.334;12.396;2022-10-24T05:51:30;1.90;;;1.20;;
54849;SDS011;47660;51.334;12.396;2022-10-24T05:53:55;6.78;;;0.95;;
54849;SDS011;47660;51.334;12.396;2022-10-24T05:56:21;3.58;;;1.13;;
54849;SDS011;47660;51.334;12.396;2022-10-24T05:58:46;5.50;;;1.05;;
54849;SDS011;47660;51.334;12.396;2022-10-24T06:01:11;2.85;;;1.10;;
54849;SDS011;47660;51.334;12.396;2022-10-24T06:03:37;3.35;;;1.17;;
54849;SDS011;47660;51.334;12.396;2022-10-24T06:06:07;2.85;;;1.15;;
54849;SDS011;47660;51.334;12.396;2022-10-24T06:08:36;3.97;;;1.13;;
54849;SDS011;47660;51.334;12.396;2022-10-24T06:11:02;6.57;;;1.10;;
54849;SDS011;47660;51.334;12.396;2022-10-24T06:13:27;3.35;;;1.10;;
54849;SDS011;47660;51.334;12.396;2022-10-24T06:15:52;5.57;;;1.25;;
54849;SDS011;47660;51.334;12.396;2022-10-24T06:18:18;4.57;;;1.60;;
54849;SDS011;47660;51.334;12.396;2022-10-24T06:20:45;2.05;;;0.90;;
54849;SDS011;47660;51.334;12.396;2022-10-24T06:23:11;4.28;;;1.27;;
54849;SDS011;47660;51.334;12.396;2022-10-24T06:25:36;1.67;;;1.10;;
54849;SDS011;47660;51.334;12.396;2022-10-24T06:28:06;3.83;;;1.23;;
54849;SDS011;47660;51.334;12.396;2022-10-24T06:30:31;2.00;;;0.80;;
54849;SDS011;47660;51.334;12.396;2022-10-24T06:32:57;5.38;;;1.02;;
54849;SDS011;47660;51.334;12.396;2022-10-24T06:35:24;2.33;;;1.02;;
54849;SDS011;47660;51.334;12.396;2022-10-24T06:37:50;3.80;;;1.35;;
54849;SDS011;47660;51.334;12.396;2022-10-24T06:40:16;5.93;;;1.30;;
54849;SDS011;47660;51.334;12.396;2022-10-24T06:42:43;6.28;;;1.30;;
54849;SDS011;47660;51.334;12.396;2022-10-24T06:45:09;3.03;;;1.17;;
54849;SDS011;47660;51.334;12.396;2022-10-24T06:47:37;4.00;;;1.13;;
54849;SDS011;47660;51.334;12.396;2022-10-24T06:50:02;3.80;;;1.20;;
54849;SDS011;47660;51.334;12.396;2022-10-24T06:52:28;3.55;;;1.10;;
54849;SDS011;47660;51.334;12.396;2022-10-24T06:54:53;4.63;;;1.38;;
54849;SDS011;47660;51.334;12.396;2022-10-24T06:57:21;2.22;;;1.27;;
54849;SDS011;47660;51.334;12.396;2022-10-24T06:59:46;3.17;;;1.00;;
54849;SDS011;47660;51.334;12.396;2022-10-24T07:02:12;3.92;;;0.90;;
54849;SDS011;47660;51.334;12.396;2022-10-24T07:04:38;1.70;;;0.95;;
54849;SDS011;47660;51.334;12.396;2022-10-24T07:07:03;6.57;;;1.20;;
54849;SDS011;47660;51.334;12.396;2022-10-24T07:09:28;1.30;;;0.57;;
54849;SDS011;47660;51.334;12.396;2022-10-24T07:11:54;3.42;;;1.20;;
54849;SDS011;47660;51.334;12.396;2022-10-24T07:14:19;0.50;;;0.40;;
54849;SDS011;47660;51.334;12.396;2022-10-24T07:16:45;2.83;;;0.95;;
54849;SDS011;47660;51.334;12.396;2022-10-24T07:19:10;3.70;;;1.40;;
54849;SDS011;47660;51.334;12.396;2022-10-24T07:21:36;3.88;;;1.45;;
54849;SDS011;47660;51.334;12.396;2022-10-24T07:24:01;1.98;;;0.80;;
54849;SDS011;47660;51.334;12.396;2022-10-24T07:26:27;1.48;;;0.75;;
54849;SDS011;47660;51.334;12.396;2022-10-24T07:28:53;6.53;;;1.10;;
54849;SDS011;47660;51.334;12.396;2022-10-24T07:31:21;2.65;;;0.90;;
54849;SDS011;47660;51.334;12.396;2022-10-24T07:33:49;2.05;;;0.90;;
54849;SDS011;47660;51.334;12.396;2022-10-24T07:36:21;1.38;;;0.70;;
54849;SDS011;47660;51.334;12.396;2022-10-24T07:38:47;2.13;;;0.70;;
54849;SDS011;47660;51.334;12.396;2022-10-24T07:41:12;3.67;;;0.73;;
54849;SDS011;47660;51.334;12.396;2022-10-24T07:43:38;2.15;;;1.10;;
54849;SDS011;47660;51.334;12.396;2022-10-24T07:46:06;3.85;;;1.10;;
54849;SDS011;47660;51.334;12.396;2022-10-24T07:48:32;4.68;;;1.13;;
54849;SDS011;47660;51.334;12.396;2022-10-24T07:50:57;2.95;;;0.50;;
54849;SDS011;47660;51.334;12.396;2022-10-24T07:53:22;4.35;;;1.00;;
54849;SDS011;47660;51.334;12.396;2022-10-24T07:55:50;3.38;;;0.93;;
54849;SDS011;47660;51.334;12.396;2022-10-24T07:58:15;3.55;;;0.77;;
54849;SDS011;47660;51.334;12.396;2022-10-24T08:00:42;3.72;;;1.00;;
54849;SDS011;47660;51.334;12.396;2022-10-24T08:03:08;1.70;;;0.98;;
54849;SDS011;47660;51.334;12.396;2022-10-24T08:05:33;2.45;;;1.08;;
54849;SDS011;47660;51.334;12.396;2022-10-24T08:07:58;4.47;;;1.30;;
54849;SDS011;47660;51.334;12.396;2022-10-24T08:10:23;1.70;;;0.85;;
54849;SDS011;47660;51.334;12.396;2022-10-24T08:12:49;4.22;;;1.00;;
54849;SDS011;47660;51.334;12.396;2022-10-24T08:15:14;1.85;;;1.10;;
54849;SDS011;47660;51.334;12.396;2022-10-24T08:17:39;4.37;;;1.10;;
54849;SDS011;47660;51.334;12.396;2022-10-24T08:20:05;2.33;;;0.65;;
54849;SDS011;47660;51.334;12.396;2022-10-24T08:22:31;2.47;;;1.35;;
54849;SDS011;47660;51.334;12.396;2022-10-24T08:24:58;2.10;;;0.70;;
54849;SDS011;47660;51.334;12.396;2022-10-24T08:27:23;3.13;;;1.17;;
54849;SDS011;47660;51.334;12.396;2022-10-24T08:29:48;1.83;;;1.00;;
54849;SDS011;47660;51.334;12.396;2022-10-24T08:32:13;2.28;;;0.70;;
54849;SDS011;47660;51.334;12.396;2022-10-24T08:34:39;2.83;;;0.80;;
54849;SDS011;47660;51.334;12.396;2022-10-24T08:37:04;3.03;;;1.05;;
54849;SDS011;47660;51.334;12.396;2022-10-24T08:39:29;3.95;;;1.63;;
54849;SDS011;47660;51.334;12.396;2022-10-24T08:41:59;1.08;;;0.85;;
54849;SDS011;47660;51.334;12.396;2022-10-24T08:44:26;4.22;;;1.00;;
54849;SDS011;47660;51.334;12.396;2022-10-24T08:49:37;2.85;;;0.90;;
54849;SDS011;47660;51.334;12.396;2022-10-24T08:52:16;2.58;;;1.10;;
54849;SDS011;47660;51.334;12.396;2022-10-24T08:54:43;1.67;;;0.93;;
54849;SDS011;47660;51.334;12.396;2022-10-24T08:57:17;2.85;;;1.10;;
54849;SDS011;47660;51.334;12.396;2022-10-24T08:59:43;6.18;;;0.70;;
54849;SDS011;47660;51.334;12.396;2022-10-24T09:02:14;2.93;;;1.10;;
54849;SDS011;47660;51.334;12.396;2022-10-24T09:05:42;2.05;;;0.80;;
54849;SDS011;47660;51.334;12.396;2022-10-24T09:07:35;2.13;;;0.60;;
54849;SDS011;47660;51.334;12.396;2022-10-24T09:10:05;2.47;;;0.70;;
54849;SDS011;47660;51.334;12.396;2022-10-24T09:15:04;4.28;;;0.85;;
54849;SDS011;47660;51.334;12.396;2022-10-24T09:17:34;3.10;;;1.50;;
54849;SDS011;47660;51.334;12.396;2022-10-24T09:22:41;3.95;;;0.80;;
54849;SDS011;47660;51.334;12.396;2022-10-24T09:25:09;1.42;;;0.90;;
54849;SDS011;47660;51.334;12.396;2022-10-24T09:27:37;3.42;;;1.23;;
54849;SDS011;47660;51.334;12.396;2022-10-24T09:30:06;2.75;;;1.02;;
54849;SDS011;47660;51.334;12.396;2022-10-24T09:32:32;3.20;;;1.15;;
54849;SDS011;47660;51.334;12.396;2022-10-24T09:35:03;4.05;;;1.05;;
54849;SDS011;47660;51.334;12.396;2022-10-24T09:37:34;1.63;;;0.93;;
54849;SDS011;47660;51.334;12.396;2022-10-24T09:40:04;6.63;;;1.25;;
54849;SDS011;47660;51.334;12.396;2022-10-24T09:42:30;1.35;;;0.95;;
54849;SDS011;47660;51.334;12.396;2022-10-24T09:44:56;7.68;;;1.50;;
54849;SDS011;47660;51.334;12.396;2022-10-24T09:47:25;4.00;;;1.05;;
54849;SDS011;47660;51.334;12.396;2022-10-24T09:49:52;4.03;;;1.15;;
54849;SDS011;47660;51.334;12.396;2022-10-24T09:52:18;2.85;;;1.10;;
54849;SDS011;47660;51.334;12.396;2022-10-24T09:54:44;2.13;;;1.30;;
54849;SDS011;47660;51.334;12.396;2022-10-24T09:59:38;4.53;;;1.23;;
54849;SDS011;47660;51.334;12.396;2022-10-24T10:04:43;1.63;;;1.20;;
54849;SDS011;47660;51.334;12.396;2022-10-24T10:07:12;2.40;;;0.85;;
54849;SDS011;47660;51.334;12.396;2022-10-24T10:09:38;5.03;;;1.70;;
54849;SDS011;47660;51.334;12.396;2022-10-24T10:12:56;6.22;;;1.45;;
54849;SDS011;47660;51.334;12.396;2022-10-24T10:14:56;4.05;;;1.45;;
54849;SDS011;47660;51.334;12.396;2022-10-24T10:17:23;4.68;;;1.30;;
54849;SDS011;47660;51.334;12.396;2022-10-24T10:19:49;6.40;;;1.40;;
54849;SDS011;47660;51.334;12.396;2022-10-24T10:22:31;6.35;;;1.20;;
54849;SDS011;47660;51.334;12.396;2022-10-24T10:24:59;4.15;;;1.27;;
54849;SDS011;47660;51.334;12.396;2022-10-24T10:30:06;8.68;;;1.30;;
54849;SDS011;47660;51.334;12.396;2022-10-24T10:32:35;5.10;;;1.17;;
54849;SDS011;47660;51.334;12.396;2022-10-24T10:35:04;3.38;;;1.42;;
54849;SDS011;47660;51.334;12.396;2022-10-24T10:37:35;6.13;;;1.50;;
54849;SDS011;47660;51.334;12.396;2022-10-24T10:48:04;5.85;;;1.38;;
54849;SDS011;47660;51.334;12.396;2022-10-24T11:11:08;3.00;;;1.25;;
54849;SDS011;47660;51.334;12.396;2022-10-24T11:13:41;3.60;;;1.20;;
54849;SDS011;47660;51.334;12.396;2022-10-24T11:16:11;2.90;;;1.10;;
54849;SDS011;47660;51.334;12.396;2022-10-24T11:18:38;3.00;;;1.40;;
54849;SDS011;47660;51.334;12.396;2022-10-24T11:21:05;4.07;;;1.00;;
54849;SDS011;47660;51.334;12.396;2022-10-24T11:23:42;2.63;;;1.10;;
54849;SDS011;47660;51.334;12.396;2022-10-24T11:28:45;3.37;;;1.57;;
54849;SDS011;47660;51.334;12.396;2022-10-24T11:31:26;4.95;;;1.25;;
54849;SDS011;47660;51.334;12.396;2022-10-24T11:36:45;3.15;;;1.20;;
54849;SDS011;47660;51.334;12.396;2022-10-24T11:39:14;4.85;;;1.17;;
54849;SDS011;47660;51.334;12.396;2022-10-24T11:46:52;3.22;;;0.80;;
54849;SDS011;47660;51.334;12.396;2022-10-24T11:51:52;4.18;;;1.05;;
54849;SDS011;47660;51.334;12.396;2022-10-24T11:54:24;4.10;;;1.30;;
54849;SDS011;47660;51.334;12.396;2022-10-24T11:56:52;3.10;;;1.42;;
54849;SDS011;47660;51.334;12.396;2022-10-24T11:59:19;5.75;;;1.33;;
54849;SDS011;47660;51.334;12.396;2022-10-24T12:09:43;4.10;;;1.20;;
54849;SDS011;47660;51.334;12.396;2022-10-24T12:12:28;3.58;;;1.08;;
54849;SDS011;47660;51.334;12.396;2022-10-24T12:20:10;5.22;;;1.20;;
54849;SDS011;47660;51.334;12.396;2022-10-24T12:22:40;1.17;;;1.00;;
54849;SDS011;47660;51.334;12.396;2022-10-24T12:25:07;2.30;;;0.75;;
54849;SDS011;47660;51.334;12.396;2022-10-24T12:27:39;2.83;;;0.90;;
54849;SDS011;47660;51.334;12.396;2022-10-24T12:35:02;1.40;;;0.60;;
54849;SDS011;47660;51.334;12.396;2022-10-24T12:39:53;2.53;;;0.90;;
54849;SDS011;47660;51.334;12.396;2022-10-24T12:44:44;3.38;;;0.70;;
54849;SDS011;47660;51.334;12.396;2022-10-24T12:47:24;3.28;;;0.70;;
54849;SDS011;47660;51.334;12.396;2022-10-24T12:49:49;1.20;;;0.90;;
54849;SDS011;47660;51.334;12.396;2022-10-24T12:54:55;0.40;;;0.40;;
54849;SDS011;47660;51.334;12.396;2022-10-24T12:57:25;3.75;;;0.70;;
54849;SDS011;47660;51.334;12.396;2022-10-24T13:05:08;1.65;;;0.63;;
54849;SDS011;47660;51.334;12.396;2022-10-24T13:15:30;1.70;;;0.50;;
54849;SDS011;47660;51.334;12.396;2022-10-24T13:18:03;1.83;;;0.43;;
54849;SDS011;47660;51.334;12.396;2022-10-24T13:20:37;1.52;;;0.70;;
54849;SDS011;47660;51.334;12.396;2022-10-24T13:23:14;1.85;;;0.60;;
54849;SDS011;47660;51.334;12.396;2022-10-24T13:25:40;2.30;;;0.65;;
54849;SDS011;47660;51.334;12.396;2022-10-24T13:28:28;0.43;;;0.40;;
54849;SDS011;47660;51.334;12.396;2022-10-24T13:39:00;1.27;;;0.50;;
54849;SDS011;47660;51.334;12.396;2022-10-24T13:41:30;1.23;;;0.80;;
54849;SDS011;47660;51.334;12.396;2022-10-24T13:44:40;2.75;;;0.60;;
54849;SDS011;47660;51.334;12.396;2022-10-24T13:46:52;0.40;;;0.22;;
54849;SDS011;47660;51.334;12.396;2022-10-24T13:49:24;1.27;;;0.40;;
54849;SDS011;47660;51.334;12.396;2022-10-24T13:51:51;0.65;;;0.43;;
54849;SDS011;47660;51.334;12.396;2022-10-24T13:56:44;1.65;;;0.50;;
54849;SDS011;47660;51.334;12.396;2022-10-24T13:59:26;0.40;;;0.32;;
54849;SDS011;47660;51.334;12.396;2022-10-24T14:01:52;0.28;;;0.20;;
54849;SDS011;47660;51.334;12.396;2022-10-24T14:04:17;0.82;;;0.50;;
54849;SDS011;47660;51.334;12.396;2022-10-24T14:06:42;1.08;;;0.40;;
54849;SDS011;47660;51.334;12.396;2022-10-24T14:09:08;2.08;;;0.60;;
54849;SDS011;47660;51.334;12.396;2022-10-24T14:11:43;2.95;;;0.70;;
54849;SDS011;47660;51.334;12.396;2022-10-24T14:14:28;3.83;;;0.85;;
54849;SDS011;47660;51.334;12.396;2022-10-24T14:17:07;1.17;;;0.47;;
54849;SDS011;47660;51.334;12.396;2022-10-24T14:19:32;0.93;;;0.50;;
54849;SDS011;47660;51.334;12.396;2022-10-24T14:22:00;1.60;;;0.40;;
54849;SDS011;47660;51.334;12.396;2022-10-24T14:24:25;0.85;;;0.50;;
54849;SDS011;47660;51.334;12.396;2022-10-24T14:26:50;1.25;;;0.63;;
54849;SDS011;47660;51.334;12.396;2022-10-24T14:29:28;0.68;;;0.50;;
54849;SDS011;47660;51.334;12.396;2022-10-24T14:34:24;1.77;;;0.60;;
54849;SDS011;47660;51.334;12.396;2022-10-24T14:36:49;0.50;;;0.40;;
54849;SDS011;47660;51.334;12.396;2022-10-24T14:39:16;0.77;;;0.43;;
54849;SDS011;47660;51.334;12.396;2022-10-24T14:41:42;1.10;;;0.60;;
54849;SDS011;47660;51.334;12.396;2022-10-24T14:44:10;4.22;;;0.70;;
54849;SDS011;47660;51.334;12.396;2022-10-24T14:46:41;0.20;;;0.20;;
54849;SDS011;47660;51.334;12.396;2022-10-24T14:51:51;2.10;;;0.50;;
54849;SDS011;47660;51.334;12.396;2022-10-24T14:54:20;5.53;;;0.90;;
54849;SDS011;47660;51.334;12.396;2022-10-24T14:56:48;2.28;;;0.60;;
54849;SDS011;47660;51.334;12.396;2022-10-24T14:59:18;1.42;;;0.70;;
54849;SDS011;47660;51.334;12.396;2022-10-24T15:04:30;0.55;;;0.38;;
54849;SDS011;47660;51.334;12.396;2022-10-24T15:07:10;0.35;;;0.32;;
54849;SDS011;47660;51.334;12.396;2022-10-24T15:09:35;0.60;;;0.45;;
54849;SDS011;47660;51.334;12.396;2022-10-24T15:12:01;0.53;;;0.40;;
54849;SDS011;47660;51.334;12.396;2022-10-24T15:17:02;0.85;;;0.50;;
54849;SDS011;47660;51.334;12.396;2022-10-24T15:19:28;1.30;;;0.43;;
54849;SDS011;47660;51.334;12.396;2022-10-24T15:21:54;3.65;;;0.90;;
54849;SDS011;47660;51.334;12.396;2022-10-24T15:24:21;1.23;;;0.40;;
54849;SDS011;47660;51.334;12.396;2022-10-24T15:26:47;1.65;;;0.47;;
54849;SDS011;47660;51.334;12.396;2022-10-24T15:31:41;2.27;;;0.80;;
54849;SDS011;47660;51.334;12.396;2022-10-24T15:34:07;1.48;;;0.50;;
54849;SDS011;47660;51.334;12.396;2022-10-24T15:36:38;1.63;;;0.50;;
54849;SDS011;47660;51.334;12.396;2022-10-24T15:39:04;4.78;;;1.10;;
54849;SDS011;47660;51.334;12.396;2022-10-24T15:41:33;1.58;;;0.50;;
54849;SDS011;47660;51.334;12.396;2022-10-24T15:43:58;1.70;;;0.70;;
54849;SDS011;47660;51.334;12.396;2022-10-24T15:46:23;1.27;;;0.63;;
54849;SDS011;47660;51.334;12.396;2022-10-24T15:48:50;1.38;;;0.47;;
54849;SDS011;47660;51.334;12.396;2022-10-24T15:51:18;0.95;;;0.50;;
54849;SDS011;47660;51.334;12.396;2022-10-24T15:53:47;2.90;;;0.63;;
54849;SDS011;47660;51.334;12.396;2022-10-24T15:56:14;2.40;;;0.70;;
54849;SDS011;47660;51.334;12.396;2022-10-24T15:58:39;1.45;;;0.80;;
54849;SDS011;47660;51.334;12.396;2022-10-24T16:01:04;0.50;;;0.40;;
54849;SDS011;47660;51.334;12.396;2022-10-24T16:03:30;6.78;;;0.90;;
54849;SDS011;47660;51.334;12.396;2022-10-24T16:05:56;3.05;;;0.80;;
54849;SDS011;47660;51.334;12.396;2022-10-24T16:08:23;1.80;;;0.68;;
54849;SDS011;47660;51.334;12.396;2022-10-24T16:10:49;2.22;;;1.00;;
54849;SDS011;47660;51.334;12.396;2022-10-24T16:13:16;2.42;;;0.90;;
54849;SDS011;47660;51.334;12.396;2022-10-24T16:15:41;2.88;;;0.77;;
54849;SDS011;47660;51.334;12.396;2022-10-24T16:18:07;1.88;;;0.90;;
54849;SDS011;47660;51.334;12.396;2022-10-24T16:20:33;3.35;;;0.93;;
54849;SDS011;47660;51.334;12.396;2022-10-24T16:22:58;4.40;;;0.90;;
54849;SDS011;47660;51.334;12.396;2022-10-24T16:25:28;1.25;;;0.75;;
54849;SDS011;47660;51.334;12.396;2022-10-24T16:27:53;4.22;;;1.05;;
54849;SDS011;47660;51.334;12.396;2022-10-24T16:30:20;1.58;;;0.80;;
54849;SDS011;47660;51.334;12.396;2022-10-24T16:32:46;1.90;;;0.47;;
54849;SDS011;47660;51.334;12.396;2022-10-24T16:35:20;2.15;;;1.35;;
54849;SDS011;47660;51.334;12.396;2022-10-24T16:37:49;2.53;;;1.00;;
54849;SDS011;47660;51.334;12.396;2022-10-24T16:40:14;2.00;;;0.80;;
54849;SDS011;47660;51.334;12.396;2022-10-24T16:42:40;0.68;;;0.65;;
54849;SDS011;47660;51.334;12.396;2022-10-24T16:45:05;4.47;;;1.27;;
54849;SDS011;47660;51.334;12.396;2022-10-24T16:47:33;1.15;;;0.82;;
54849;SDS011;47660;51.334;12.396;2022-10-24T16:49:58;2.65;;;1.20;;
54849;SDS011;47660;51.334;12.396;2022-10-24T16:52:26;2.15;;;0.65;;